sensor_id;sensor_type;location;lat;lon;timestamp;P1;durP1;ratioP1;P2;durP2;ratioP2
23432;SDS011;41331;45.412;10.992;2023-05-07T00:00:37;15.75;;;10.98;;
23432;SDS011;41331;45.412;10.992;2023-05-07T00:03:05;16.75;;;11.45;;
23432;SDS011;41331;45.412;10.992;2023-05-07T00:05:32;16.08;;;11.55;;
23432;SDS011;41331;45.412;10.992;2023-05-07T00:08:00;16.27;;;12.05;;
23432;SDS011;41331;45.412;10.992;2023-05-07T00:10:27;17.30;;;12.43;;
23432;SDS011;41331;45.412;10.992;2023-05-07T00:12:54;15.80;;;12.43;;
23432;SDS011;41331;45.412;10.992;2023-05-07T00:15:25;17.00;;;12.32;;
23432;SDS011;41331;45.412;10.992;2023-05-07T00:17:53;17.70;;;12.82;;
23432;SDS011;41331;45.412;10.992;2023-05-07T00:20:20;19.52;;;13.00;;
23432;SDS011;41331;45.412;10.992;2023-05-07T00:22:51;18.25;;;12.38;;
23432;SDS011;41331;45.412;10.992;2023-05-07T00:25:18;19.05;;;13.02;;
23432;SDS011;41331;45.412;10.992;2023-05-07T00:27:46;21.85;;;12.07;;
23432;SDS011;41331;45.412;10.992;2023-05-07T00:30:15;20.60;;;12.27;;
23432;SDS011;41331;45.412;10.992;2023-05-07T00:32:42;20.10;;;13.60;;
23432;SDS011;41331;45.412;10.992;2023-05-07T00:35:12;17.75;;;12.30;;
23432;SDS011;41331;45.412;10.992;2023-05-07T00:37:39;16.90;;;11.80;;
23432;SDS011;41331;45.412;10.992;2023-05-07T00:40:07;18.75;;;11.23;;
23432;SDS011;41331;45.412;10.992;2023-05-07T00:42:36;15.93;;;11.20;;
23432;SDS011;41331;45.412;10.992;2023-05-07T00:45:03;16.63;;;10.88;;
23432;SDS011;41331;45.412;10.992;2023-05-07T00:47:31;19.90;;;11.27;;
23432;SDS011;41331;45.412;10.992;2023-05-07T00:49:59;16.40;;;11.38;;
23432;SDS011;41331;45.412;10.992;2023-05-07T00:52:26;17.42;;;10.98;;
23432;SDS011;41331;45.412;10.992;2023-05-07T00:54:54;16.60;;;11.85;;
23432;SDS011;41331;45.412;10.992;2023-05-07T00:57:22;15.57;;;11.70;;
23432;SDS011;41331;45.412;10.992;2023-05-07T00:59:51;19.00;;;11.98;;
23432;SDS011;41331;45.412;10.992;2023-05-07T01:02:19;16.60;;;12.05;;
23432;SDS011;41331;45.412;10.992;2023-05-07T01:04:46;16.35;;;12.13;;
23432;SDS011;41331;45.412;10.992;2023-05-07T01:07:14;15.85;;;11.75;;
23432;SDS011;41331;45.412;10.992;2023-05-07T01:09:42;20.75;;;11.57;;
23432;SDS011;41331;45.412;10.992;2023-05-07T01:12:10;17.08;;;12.18;;
23432;SDS011;41331;45.412;10.992;2023-05-07T01:14:37;17.80;;;13.23;;
23432;SDS011;41331;45.412;10.992;2023-05-07T01:17:05;21.85;;;13.20;;
23432;SDS011;41331;45.412;10.992;2023-05-07T01:19:33;17.85;;;13.60;;
23432;SDS011;41331;45.412;10.992;2023-05-07T01:22:03;19.77;;;13.25;;
23432;SDS011;41331;45.412;10.992;2023-05-07T01:24:44;20.38;;;13.50;;
23432;SDS011;41331;45.412;10.992;2023-05-07T01:27:13;18.30;;;13.25;;
23432;SDS011;41331;45.412;10.992;2023-05-07T01:29:41;20.42;;;13.30;;
23432;SDS011;41331;45.412;10.992;2023-05-07T01:32:09;18.70;;;13.00;;
23432;SDS011;41331;45.412;10.992;2023-05-07T01:34:37;18.45;;;13.68;;
23432;SDS011;41331;45.412;10.992;2023-05-07T01:37:06;23.10;;;12.90;;
23432;SDS011;41331;45.412;10.992;2023-05-07T01:39:38;17.23;;;12.52;;
23432;SDS011;41331;45.412;10.992;2023-05-07T01:42:06;19.02;;;12.23;;
23432;SDS011;41331;45.412;10.992;2023-05-07T01:44:34;19.02;;;13.27;;
23432;SDS011;41331;45.412;10.992;2023-05-07T01:47:02;20.88;;;11.90;;
23432;SDS011;41331;45.412;10.992;2023-05-07T01:49:30;17.73;;;12.38;;
23432;SDS011;41331;45.412;10.992;2023-05-07T01:51:58;17.45;;;13.55;;
23432;SDS011;41331;45.412;10.992;2023-05-07T01:54:26;20.08;;;13.35;;
23432;SDS011;41331;45.412;10.992;2023-05-07T01:56:58;22.42;;;14.15;;
23432;SDS011;41331;45.412;10.992;2023-05-07T01:59:25;18.88;;;13.05;;
23432;SDS011;41331;45.412;10.992;2023-05-07T02:01:53;20.17;;;12.60;;
23432;SDS011;41331;45.412;10.992;2023-05-07T02:04:20;18.05;;;13.02;;
23432;SDS011;41331;45.412;10.992;2023-05-07T02:06:48;20.08;;;13.18;;
23432;SDS011;41331;45.412;10.992;2023-05-07T02:09:16;20.02;;;13.55;;
23432;SDS011;41331;45.412;10.992;2023-05-07T02:11:47;19.02;;;14.25;;
23432;SDS011;41331;45.412;10.992;2023-05-07T02:14:14;20.02;;;13.50;;
23432;SDS011;41331;45.412;10.992;2023-05-07T02:16:42;19.38;;;13.55;;
23432;SDS011;41331;45.412;10.992;2023-05-07T02:19:12;23.02;;;13.57;;
23432;SDS011;41331;45.412;10.992;2023-05-07T02:21:39;19.50;;;13.50;;
23432;SDS011;41331;45.412;10.992;2023-05-07T02:24:07;21.20;;;14.20;;
23432;SDS011;41331;45.412;10.992;2023-05-07T02:26:34;16.73;;;13.32;;
23432;SDS011;41331;45.412;10.992;2023-05-07T02:29:02;21.92;;;13.27;;
23432;SDS011;41331;45.412;10.992;2023-05-07T02:31:29;17.42;;;13.13;;
23432;SDS011;41331;45.412;10.992;2023-05-07T02:33:57;25.10;;;14.88;;
23432;SDS011;41331;45.412;10.992;2023-05-07T02:36:24;19.80;;;13.40;;
23432;SDS011;41331;45.412;10.992;2023-05-07T02:39:01;20.77;;;13.63;;
23432;SDS011;41331;45.412;10.992;2023-05-07T02:41:29;20.33;;;13.65;;
23432;SDS011;41331;45.412;10.992;2023-05-07T02:43:57;18.02;;;13.57;;
23432;SDS011;41331;45.412;10.992;2023-05-07T02:46:24;18.20;;;13.77;;
23432;SDS011;41331;45.412;10.992;2023-05-07T02:48:59;21.88;;;13.63;;
23432;SDS011;41331;45.412;10.992;2023-05-07T02:51:29;18.17;;;13.38;;
23432;SDS011;41331;45.412;10.992;2023-05-07T02:53:59;19.58;;;12.80;;
23432;SDS011;41331;45.412;10.992;2023-05-07T02:56:28;19.23;;;13.68;;
23432;SDS011;41331;45.412;10.992;2023-05-07T02:58:56;18.02;;;12.93;;
23432;SDS011;41331;45.412;10.992;2023-05-07T03:01:27;22.63;;;14.40;;
23432;SDS011;41331;45.412;10.992;2023-05-07T03:04:03;23.38;;;14.00;;
23432;SDS011;41331;45.412;10.992;2023-05-07T03:06:31;26.63;;;14.25;;
23432;SDS011;41331;45.412;10.992;2023-05-07T03:08:59;20.33;;;13.80;;
23432;SDS011;41331;45.412;10.992;2023-05-07T03:11:27;19.45;;;13.80;;
23432;SDS011;41331;45.412;10.992;2023-05-07T03:13:54;21.48;;;14.05;;
23432;SDS011;41331;45.412;10.992;2023-05-07T03:16:22;21.00;;;14.45;;
23432;SDS011;41331;45.412;10.992;2023-05-07T03:18:49;20.45;;;14.23;;
23432;SDS011;41331;45.412;10.992;2023-05-07T03:21:17;22.35;;;14.77;;
23432;SDS011;41331;45.412;10.992;2023-05-07T03:23:45;20.60;;;14.27;;
23432;SDS011;41331;45.412;10.992;2023-05-07T03:26:12;21.55;;;14.60;;
23432;SDS011;41331;45.412;10.992;2023-05-07T03:28:40;22.00;;;14.50;;
23432;SDS011;41331;45.412;10.992;2023-05-07T03:31:12;21.40;;;13.67;;
23432;SDS011;41331;45.412;10.992;2023-05-07T03:33:49;18.98;;;14.27;;
23432;SDS011;41331;45.412;10.992;2023-05-07T03:36:18;20.75;;;14.40;;
23432;SDS011;41331;45.412;10.992;2023-05-07T03:38:46;21.60;;;15.60;;
23432;SDS011;41331;45.412;10.992;2023-05-07T03:41:17;21.60;;;14.65;;
23432;SDS011;41331;45.412;10.992;2023-05-07T03:43:46;19.75;;;14.52;;
23432;SDS011;41331;45.412;10.992;2023-05-07T03:46:13;23.60;;;14.63;;
23432;SDS011;41331;45.412;10.992;2023-05-07T03:48:41;20.05;;;14.25;;
23432;SDS011;41331;45.412;10.992;2023-05-07T03:51:11;25.55;;;15.82;;
23432;SDS011;41331;45.412;10.992;2023-05-07T03:53:38;20.08;;;15.13;;
23432;SDS011;41331;45.412;10.992;2023-05-07T03:56:06;20.90;;;15.23;;
23432;SDS011;41331;45.412;10.992;2023-05-07T03:58:36;21.65;;;15.75;;
23432;SDS011;41331;45.412;10.992;2023-05-07T04:01:07;25.20;;;16.27;;
23432;SDS011;41331;45.412;10.992;2023-05-07T04:03:35;23.02;;;15.75;;
23432;SDS011;41331;45.412;10.992;2023-05-07T04:06:04;22.38;;;15.43;;
23432;SDS011;41331;45.412;10.992;2023-05-07T04:08:34;26.02;;;15.52;;
23432;SDS011;41331;45.412;10.992;2023-05-07T04:11:03;23.38;;;15.25;;
23432;SDS011;41331;45.412;10.992;2023-05-07T04:13:32;22.83;;;15.98;;
23432;SDS011;41331;45.412;10.992;2023-05-07T04:16:02;22.60;;;16.00;;
23432;SDS011;41331;45.412;10.992;2023-05-07T04:18:32;21.00;;;15.32;;
23432;SDS011;41331;45.412;10.992;2023-05-07T04:20:59;21.75;;;15.32;;
23432;SDS011;41331;45.412;10.992;2023-05-07T04:23:27;22.88;;;15.80;;
23432;SDS011;41331;45.412;10.992;2023-05-07T04:25:58;25.42;;;15.73;;
23432;SDS011;41331;45.412;10.992;2023-05-07T04:28:33;26.17;;;15.52;;
23432;SDS011;41331;45.412;10.992;2023-05-07T04:31:01;25.30;;;15.75;;
23432;SDS011;41331;45.412;10.992;2023-05-07T04:33:31;24.33;;;15.80;;
23432;SDS011;41331;45.412;10.992;2023-05-07T04:36:01;22.05;;;15.93;;
23432;SDS011;41331;45.412;10.992;2023-05-07T04:38:33;24.50;;;15.82;;
23432;SDS011;41331;45.412;10.992;2023-05-07T04:41:03;23.42;;;15.77;;
23432;SDS011;41331;45.412;10.992;2023-05-07T04:46:02;24.50;;;16.48;;
23432;SDS011;41331;45.412;10.992;2023-05-07T04:48:29;23.92;;;16.55;;
23432;SDS011;41331;45.412;10.992;2023-05-07T04:50:58;26.60;;;17.25;;
23432;SDS011;41331;45.412;10.992;2023-05-07T04:53:26;24.85;;;17.10;;
23432;SDS011;41331;45.412;10.992;2023-05-07T04:55:55;26.63;;;17.80;;
23432;SDS011;41331;45.412;10.992;2023-05-07T04:58:33;25.00;;;17.65;;
23432;SDS011;41331;45.412;10.992;2023-05-07T05:01:01;27.90;;;18.08;;
23432;SDS011;41331;45.412;10.992;2023-05-07T05:03:29;27.58;;;18.13;;
23432;SDS011;41331;45.412;10.992;2023-05-07T05:05:57;26.92;;;17.60;;
23432;SDS011;41331;45.412;10.992;2023-05-07T05:08:30;23.58;;;17.40;;
23432;SDS011;41331;45.412;10.992;2023-05-07T05:11:00;25.52;;;18.38;;
23432;SDS011;41331;45.412;10.992;2023-05-07T05:13:30;24.30;;;18.57;;
23432;SDS011;41331;45.412;10.992;2023-05-07T05:15:58;25.27;;;18.00;;
23432;SDS011;41331;45.412;10.992;2023-05-07T05:18:27;28.40;;;18.75;;
23432;SDS011;41331;45.412;10.992;2023-05-07T05:20:55;23.10;;;18.20;;
23432;SDS011;41331;45.412;10.992;2023-05-07T05:23:23;26.80;;;17.92;;
23432;SDS011;41331;45.412;10.992;2023-05-07T05:25:55;27.33;;;17.98;;
23432;SDS011;41331;45.412;10.992;2023-05-07T05:28:25;26.48;;;17.77;;
23432;SDS011;41331;45.412;10.992;2023-05-07T05:30:52;23.50;;;18.00;;
23432;SDS011;41331;45.412;10.992;2023-05-07T05:33:21;22.88;;;16.67;;
23432;SDS011;41331;45.412;10.992;2023-05-07T05:35:53;26.00;;;17.08;;
23432;SDS011;41331;45.412;10.992;2023-05-07T05:38:21;25.15;;;16.38;;
23432;SDS011;41331;45.412;10.992;2023-05-07T05:40:51;27.48;;;17.77;;
23432;SDS011;41331;45.412;10.992;2023-05-07T05:43:22;22.27;;;16.60;;
23432;SDS011;41331;45.412;10.992;2023-05-07T05:45:50;23.52;;;16.98;;
23432;SDS011;41331;45.412;10.992;2023-05-07T05:48:17;26.98;;;17.00;;
23432;SDS011;41331;45.412;10.992;2023-05-07T05:50:45;23.73;;;16.77;;
23432;SDS011;41331;45.412;10.992;2023-05-07T05:53:15;26.85;;;16.67;;
23432;SDS011;41331;45.412;10.992;2023-05-07T05:55:43;23.58;;;17.38;;
23432;SDS011;41331;45.412;10.992;2023-05-07T05:58:11;22.95;;;16.63;;
23432;SDS011;41331;45.412;10.992;2023-05-07T06:00:44;23.60;;;16.65;;
23432;SDS011;41331;45.412;10.992;2023-05-07T06:03:11;22.70;;;16.30;;
23432;SDS011;41331;45.412;10.992;2023-05-07T06:05:40;24.92;;;16.45;;
23432;SDS011;41331;45.412;10.992;2023-05-07T06:08:08;25.60;;;16.65;;
23432;SDS011;41331;45.412;10.992;2023-05-07T06:10:36;22.55;;;16.15;;
23432;SDS011;41331;45.412;10.992;2023-05-07T06:13:07;26.58;;;17.33;;
23432;SDS011;41331;45.412;10.992;2023-05-07T06:15:36;23.30;;;17.33;;
23432;SDS011;41331;45.412;10.992;2023-05-07T06:18:09;26.33;;;17.08;;
23432;SDS011;41331;45.412;10.992;2023-05-07T06:20:36;23.60;;;16.58;;
23432;SDS011;41331;45.412;10.992;2023-05-07T06:23:08;22.52;;;16.60;;
23432;SDS011;41331;45.412;10.992;2023-05-07T06:25:35;25.23;;;16.95;;
23432;SDS011;41331;45.412;10.992;2023-05-07T06:28:03;23.30;;;17.23;;
23432;SDS011;41331;45.412;10.992;2023-05-07T06:30:33;24.10;;;17.23;;
23432;SDS011;41331;45.412;10.992;2023-05-07T06:33:00;20.83;;;16.73;;
23432;SDS011;41331;45.412;10.992;2023-05-07T06:35:28;22.00;;;16.30;;
23432;SDS011;41331;45.412;10.992;2023-05-07T06:37:55;28.70;;;16.73;;
23432;SDS011;41331;45.412;10.992;2023-05-07T06:40:27;22.80;;;17.50;;
23432;SDS011;41331;45.412;10.992;2023-05-07T06:42:55;22.98;;;16.35;;
23432;SDS011;41331;45.412;10.992;2023-05-07T06:45:30;27.33;;;16.90;;
23432;SDS011;41331;45.412;10.992;2023-05-07T06:47:58;21.50;;;16.52;;
23432;SDS011;41331;45.412;10.992;2023-05-07T06:50:26;20.83;;;16.95;;
23432;SDS011;41331;45.412;10.992;2023-05-07T06:52:56;22.55;;;16.95;;
23432;SDS011;41331;45.412;10.992;2023-05-07T06:55:25;22.95;;;16.58;;
23432;SDS011;41331;45.412;10.992;2023-05-07T06:57:53;25.33;;;17.70;;
23432;SDS011;41331;45.412;10.992;2023-05-07T07:00:22;24.48;;;17.55;;
23432;SDS011;41331;45.412;10.992;2023-05-07T07:02:56;22.45;;;17.13;;
23432;SDS011;41331;45.412;10.992;2023-05-07T07:05:27;26.83;;;16.75;;
23432;SDS011;41331;45.412;10.992;2023-05-07T07:07:55;22.95;;;16.23;;
23432;SDS011;41331;45.412;10.992;2023-05-07T07:10:22;22.15;;;15.20;;
23432;SDS011;41331;45.412;10.992;2023-05-07T07:12:51;20.70;;;15.38;;
23432;SDS011;41331;45.412;10.992;2023-05-07T07:15:20;22.85;;;15.98;;
23432;SDS011;41331;45.412;10.992;2023-05-07T07:17:49;21.02;;;15.48;;
23432;SDS011;41331;45.412;10.992;2023-05-07T07:20:17;25.27;;;15.80;;
23432;SDS011;41331;45.412;10.992;2023-05-07T07:22:47;20.73;;;15.25;;
23432;SDS011;41331;45.412;10.992;2023-05-07T07:25:16;21.73;;;15.02;;
23432;SDS011;41331;45.412;10.992;2023-05-07T07:27:44;21.33;;;16.02;;
23432;SDS011;41331;45.412;10.992;2023-05-07T07:30:13;20.40;;;15.75;;
23432;SDS011;41331;45.412;10.992;2023-05-07T07:32:44;24.50;;;16.15;;
23432;SDS011;41331;45.412;10.992;2023-05-07T07:35:12;25.00;;;15.30;;
23432;SDS011;41331;45.412;10.992;2023-05-07T07:37:39;21.67;;;15.18;;
23432;SDS011;41331;45.412;10.992;2023-05-07T07:40:09;22.75;;;15.77;;
23432;SDS011;41331;45.412;10.992;2023-05-07T07:42:39;20.77;;;15.48;;
23432;SDS011;41331;45.412;10.992;2023-05-07T07:45:07;20.98;;;14.77;;
23432;SDS011;41331;45.412;10.992;2023-05-07T07:47:39;19.42;;;13.65;;
23432;SDS011;41331;45.412;10.992;2023-05-07T07:50:07;20.42;;;15.45;;
23432;SDS011;41331;45.412;10.992;2023-05-07T07:52:36;21.35;;;15.25;;
23432;SDS011;41331;45.412;10.992;2023-05-07T07:55:04;18.20;;;14.13;;
23432;SDS011;41331;45.412;10.992;2023-05-07T07:57:32;20.10;;;13.70;;
23432;SDS011;41331;45.412;10.992;2023-05-07T08:00:00;18.45;;;13.40;;
23432;SDS011;41331;45.412;10.992;2023-05-07T08:02:31;18.05;;;12.98;;
23432;SDS011;41331;45.412;10.992;2023-05-07T08:04:59;17.55;;;12.57;;
23432;SDS011;41331;45.412;10.992;2023-05-07T08:07:27;14.73;;;11.07;;
23432;SDS011;41331;45.412;10.992;2023-05-07T08:09:54;17.20;;;12.10;;
23432;SDS011;41331;45.412;10.992;2023-05-07T08:12:24;18.70;;;12.55;;
23432;SDS011;41331;45.412;10.992;2023-05-07T08:14:51;16.05;;;11.88;;
23432;SDS011;41331;45.412;10.992;2023-05-07T08:17:19;22.30;;;11.45;;
23432;SDS011;41331;45.412;10.992;2023-05-07T08:19:50;16.42;;;11.85;;
23432;SDS011;41331;45.412;10.992;2023-05-07T08:22:17;19.25;;;11.73;;
23432;SDS011;41331;45.412;10.992;2023-05-07T08:24:45;17.67;;;12.45;;
23432;SDS011;41331;45.412;10.992;2023-05-07T08:27:13;16.83;;;11.75;;
23432;SDS011;41331;45.412;10.992;2023-05-07T08:29:42;17.00;;;11.73;;
23432;SDS011;41331;45.412;10.992;2023-05-07T08:32:09;17.08;;;11.40;;
23432;SDS011;41331;45.412;10.992;2023-05-07T08:34:37;19.00;;;12.95;;
23432;SDS011;41331;45.412;10.992;2023-05-07T08:37:05;14.27;;;10.93;;
23432;SDS011;41331;45.412;10.992;2023-05-07T08:39:34;21.67;;;12.00;;
23432;SDS011;41331;45.412;10.992;2023-05-07T08:42:03;20.95;;;12.73;;
23432;SDS011;41331;45.412;10.992;2023-05-07T08:44:34;21.40;;;12.30;;
23432;SDS011;41331;45.412;10.992;2023-05-07T08:47:06;17.45;;;11.07;;
23432;SDS011;41331;45.412;10.992;2023-05-07T08:49:35;16.80;;;11.77;;
23432;SDS011;41331;45.412;10.992;2023-05-07T08:52:04;13.98;;;9.73;;
23432;SDS011;41331;45.412;10.992;2023-05-07T08:54:36;13.02;;;10.48;;
23432;SDS011;41331;45.412;10.992;2023-05-07T08:57:09;15.43;;;9.43;;
23432;SDS011;41331;45.412;10.992;2023-05-07T08:59:36;16.17;;;10.20;;
23432;SDS011;41331;45.412;10.992;2023-05-07T09:02:05;15.32;;;10.18;;
23432;SDS011;41331;45.412;10.992;2023-05-07T09:04:36;13.60;;;9.98;;
23432;SDS011;41331;45.412;10.992;2023-05-07T09:07:07;15.13;;;10.63;;
23432;SDS011;41331;45.412;10.992;2023-05-07T09:09:40;11.70;;;9.35;;
23432;SDS011;41331;45.412;10.992;2023-05-07T09:12:08;15.23;;;10.73;;
23432;SDS011;41331;45.412;10.992;2023-05-07T09:14:37;14.10;;;11.20;;
23432;SDS011;41331;45.412;10.992;2023-05-07T09:17:06;13.65;;;10.77;;
23432;SDS011;41331;45.412;10.992;2023-05-07T09:19:33;14.77;;;9.88;;
23432;SDS011;41331;45.412;10.992;2023-05-07T09:22:04;15.30;;;10.05;;
23432;SDS011;41331;45.412;10.992;2023-05-07T09:24:47;16.17;;;10.15;;
23432;SDS011;41331;45.412;10.992;2023-05-07T09:27:17;13.68;;;9.93;;
23432;SDS011;41331;45.412;10.992;2023-05-07T09:29:45;17.98;;;9.73;;
23432;SDS011;41331;45.412;10.992;2023-05-07T09:32:14;14.18;;;8.95;;
23432;SDS011;41331;45.412;10.992;2023-05-07T09:34:42;14.63;;;8.48;;
23432;SDS011;41331;45.412;10.992;2023-05-07T09:37:12;13.30;;;8.43;;
23432;SDS011;41331;45.412;10.992;2023-05-07T09:39:44;13.02;;;7.50;;
23432;SDS011;41331;45.412;10.992;2023-05-07T09:42:16;12.73;;;8.00;;
23432;SDS011;41331;45.412;10.992;2023-05-07T09:44:51;16.92;;;8.82;;
23432;SDS011;41331;45.412;10.992;2023-05-07T09:47:23;13.80;;;8.95;;
23432;SDS011;41331;45.412;10.992;2023-05-07T09:49:55;19.73;;;8.27;;
23432;SDS011;41331;45.412;10.992;2023-05-07T09:52:26;11.52;;;8.48;;
23432;SDS011;41331;45.412;10.992;2023-05-07T09:55:02;17.55;;;10.40;;
23432;SDS011;41331;45.412;10.992;2023-05-07T09:57:32;13.90;;;7.93;;
23432;SDS011;41331;45.412;10.992;2023-05-07T10:00:04;13.93;;;9.60;;
23432;SDS011;41331;45.412;10.992;2023-05-07T10:05:27;16.75;;;8.82;;
23432;SDS011;41331;45.412;10.992;2023-05-07T10:07:57;13.13;;;9.07;;
23432;SDS011;41331;45.412;10.992;2023-05-07T10:10:26;10.88;;;8.18;;
23432;SDS011;41331;45.412;10.992;2023-05-07T10:12:55;13.05;;;9.30;;
23432;SDS011;41331;45.412;10.992;2023-05-07T10:15:30;12.85;;;9.77;;
23432;SDS011;41331;45.412;10.992;2023-05-07T10:18:00;14.23;;;10.02;;
23432;SDS011;41331;45.412;10.992;2023-05-07T10:20:29;14.60;;;9.57;;
23432;SDS011;41331;45.412;10.992;2023-05-07T10:23:00;11.85;;;9.75;;
23432;SDS011;41331;45.412;10.992;2023-05-07T10:25:39;12.25;;;8.88;;
23432;SDS011;41331;45.412;10.992;2023-05-07T10:28:14;15.75;;;10.18;;
23432;SDS011;41331;45.412;10.992;2023-05-07T10:30:48;13.07;;;9.45;;
23432;SDS011;41331;45.412;10.992;2023-05-07T10:33:34;12.70;;;9.23;;
23432;SDS011;41331;45.412;10.992;2023-05-07T10:36:05;15.30;;;11.18;;
23432;SDS011;41331;45.412;10.992;2023-05-07T10:38:34;12.65;;;9.30;;
23432;SDS011;41331;45.412;10.992;2023-05-07T10:41:02;12.20;;;8.48;;
23432;SDS011;41331;45.412;10.992;2023-05-07T10:43:42;12.35;;;8.85;;
23432;SDS011;41331;45.412;10.992;2023-05-07T10:46:21;11.13;;;7.53;;
23432;SDS011;41331;45.412;10.992;2023-05-07T10:52:00;11.02;;;7.75;;
23432;SDS011;41331;45.412;10.992;2023-05-07T10:54:45;14.50;;;8.52;;
23432;SDS011;41331;45.412;10.992;2023-05-07T11:03:18;11.45;;;7.65;;
23432;SDS011;41331;45.412;10.992;2023-05-07T11:08:56;11.25;;;7.53;;
23432;SDS011;41331;45.412;10.992;2023-05-07T11:11:47;10.57;;;7.45;;
23432;SDS011;41331;45.412;10.992;2023-05-07T11:14:45;12.52;;;8.00;;
23432;SDS011;41331;45.412;10.992;2023-05-07T11:17:30;11.00;;;7.07;;
23432;SDS011;41331;45.412;10.992;2023-05-07T11:20:06;9.98;;;6.55;;
23432;SDS011;41331;45.412;10.992;2023-05-07T11:22:45;11.48;;;7.57;;
23432;SDS011;41331;45.412;10.992;2023-05-07T11:25:24;11.32;;;7.80;;
23432;SDS011;41331;45.412;10.992;2023-05-07T11:28:15;12.88;;;7.30;;
23432;SDS011;41331;45.412;10.992;2023-05-07T11:30:49;12.32;;;7.93;;
23432;SDS011;41331;45.412;10.992;2023-05-07T11:33:19;11.07;;;7.20;;
23432;SDS011;41331;45.412;10.992;2023-05-07T11:35:49;10.80;;;7.75;;
23432;SDS011;41331;45.412;10.992;2023-05-07T11:38:22;11.98;;;6.32;;
23432;SDS011;41331;45.412;10.992;2023-05-07T11:40:54;7.88;;;5.20;;
23432;SDS011;41331;45.412;10.992;2023-05-07T11:43:22;8.32;;;4.90;;
23432;SDS011;41331;45.412;10.992;2023-05-07T11:45:50;10.07;;;4.70;;
23432;SDS011;41331;45.412;10.992;2023-05-07T11:48:19;8.88;;;5.28;;
23432;SDS011;41331;45.412;10.992;2023-05-07T11:50:51;7.30;;;4.80;;
23432;SDS011;41331;45.412;10.992;2023-05-07T11:53:41;7.88;;;5.15;;
23432;SDS011;41331;45.412;10.992;2023-05-07T11:56:10;7.72;;;5.15;;
23432;SDS011;41331;45.412;10.992;2023-05-07T11:58:39;7.53;;;5.05;;
23432;SDS011;41331;45.412;10.992;2023-05-07T12:01:08;6.57;;;4.80;;
23432;SDS011;41331;45.412;10.992;2023-05-07T12:03:36;12.85;;;6.70;;
23432;SDS011;41331;45.412;10.992;2023-05-07T12:06:05;8.18;;;6.35;;
23432;SDS011;41331;45.412;10.992;2023-05-07T12:08:35;7.55;;;5.63;;
23432;SDS011;41331;45.412;10.992;2023-05-07T12:11:03;12.80;;;6.32;;
23432;SDS011;41331;45.412;10.992;2023-05-07T12:13:34;7.50;;;4.68;;
23432;SDS011;41331;45.412;10.992;2023-05-07T12:16:02;10.48;;;4.68;;
23432;SDS011;41331;45.412;10.992;2023-05-07T12:18:30;8.60;;;5.30;;
23432;SDS011;41331;45.412;10.992;2023-05-07T12:20:58;6.68;;;4.97;;
23432;SDS011;41331;45.412;10.992;2023-05-07T12:23:26;9.40;;;6.03;;
23432;SDS011;41331;45.412;10.992;2023-05-07T12:25:54;8.40;;;6.18;;
23432;SDS011;41331;45.412;10.992;2023-05-07T12:28:21;11.90;;;5.38;;
23432;SDS011;41331;45.412;10.992;2023-05-07T12:30:49;8.82;;;5.68;;
23432;SDS011;41331;45.412;10.992;2023-05-07T12:33:19;8.80;;;5.32;;
23432;SDS011;41331;45.412;10.992;2023-05-07T12:35:52;6.72;;;5.00;;
23432;SDS011;41331;45.412;10.992;2023-05-07T12:38:20;6.70;;;5.03;;
23432;SDS011;41331;45.412;10.992;2023-05-07T12:40:49;8.77;;;5.53;;
23432;SDS011;41331;45.412;10.992;2023-05-07T12:43:25;10.32;;;5.80;;
23432;SDS011;41331;45.412;10.992;2023-05-07T12:45:54;8.80;;;5.85;;
23432;SDS011;41331;45.412;10.992;2023-05-07T12:48:23;7.70;;;4.75;;
23432;SDS011;41331;45.412;10.992;2023-05-07T12:50:54;9.88;;;5.38;;
23432;SDS011;41331;45.412;10.992;2023-05-07T12:53:22;8.25;;;5.40;;
23432;SDS011;41331;45.412;10.992;2023-05-07T12:55:52;6.20;;;4.53;;
23432;SDS011;41331;45.412;10.992;2023-05-07T12:58:32;9.25;;;5.47;;
23432;SDS011;41331;45.412;10.992;2023-05-07T13:01:07;8.43;;;5.40;;
23432;SDS011;41331;45.412;10.992;2023-05-07T13:03:37;6.43;;;5.00;;
23432;SDS011;41331;45.412;10.992;2023-05-07T13:06:07;8.13;;;5.05;;
23432;SDS011;41331;45.412;10.992;2023-05-07T13:08:40;10.10;;;5.22;;
23432;SDS011;41331;45.412;10.992;2023-05-07T13:11:10;7.75;;;5.07;;
23432;SDS011;41331;45.412;10.992;2023-05-07T13:13:41;7.40;;;4.65;;
23432;SDS011;41331;45.412;10.992;2023-05-07T13:16:10;8.88;;;4.90;;
23432;SDS011;41331;45.412;10.992;2023-05-07T13:18:39;7.07;;;4.15;;
23432;SDS011;41331;45.412;10.992;2023-05-07T13:21:08;7.45;;;3.80;;
23432;SDS011;41331;45.412;10.992;2023-05-07T13:23:40;6.60;;;3.80;;
23432;SDS011;41331;45.412;10.992;2023-05-07T13:26:08;6.20;;;3.67;;
23432;SDS011;41331;45.412;10.992;2023-05-07T13:28:52;6.40;;;4.35;;
23432;SDS011;41331;45.412;10.992;2023-05-07T13:31:20;8.35;;;4.50;;
23432;SDS011;41331;45.412;10.992;2023-05-07T13:33:48;8.32;;;4.85;;
23432;SDS011;41331;45.412;10.992;2023-05-07T13:36:15;7.63;;;4.50;;
23432;SDS011;41331;45.412;10.992;2023-05-07T13:38:43;7.70;;;4.78;;
23432;SDS011;41331;45.412;10.992;2023-05-07T13:41:10;6.70;;;4.55;;
23432;SDS011;41331;45.412;10.992;2023-05-07T13:46:09;8.85;;;5.07;;
23432;SDS011;41331;45.412;10.992;2023-05-07T13:48:37;6.25;;;4.15;;
23432;SDS011;41331;45.412;10.992;2023-05-07T13:51:08;6.15;;;4.72;;
23432;SDS011;41331;45.412;10.992;2023-05-07T13:53:35;5.10;;;4.00;;
23432;SDS011;41331;45.412;10.992;2023-05-07T13:56:02;6.60;;;4.05;;
23432;SDS011;41331;45.412;10.992;2023-05-07T13:58:32;11.32;;;4.25;;
23432;SDS011;41331;45.412;10.992;2023-05-07T14:01:02;10.20;;;5.57;;
23432;SDS011;41331;45.412;10.992;2023-05-07T14:03:32;10.05;;;5.03;;
23432;SDS011;41331;45.412;10.992;2023-05-07T14:06:01;8.13;;;5.15;;
23432;SDS011;41331;45.412;10.992;2023-05-07T14:08:28;6.43;;;4.57;;
23432;SDS011;41331;45.412;10.992;2023-05-07T14:10:57;6.70;;;4.90;;
23432;SDS011;41331;45.412;10.992;2023-05-07T14:13:25;8.52;;;4.82;;
23432;SDS011;41331;45.412;10.992;2023-05-07T14:15:54;7.60;;;4.65;;
23432;SDS011;41331;45.412;10.992;2023-05-07T14:18:22;8.68;;;5.90;;
23432;SDS011;41331;45.412;10.992;2023-05-07T14:20:50;9.20;;;5.25;;
23432;SDS011;41331;45.412;10.992;2023-05-07T14:23:18;9.57;;;4.95;;
23432;SDS011;41331;45.412;10.992;2023-05-07T14:25:46;8.82;;;4.50;;
23432;SDS011;41331;45.412;10.992;2023-05-07T14:28:14;11.68;;;5.38;;
23432;SDS011;41331;45.412;10.992;2023-05-07T14:30:42;8.82;;;4.78;;
23432;SDS011;41331;45.412;10.992;2023-05-07T14:33:12;10.93;;;4.88;;
23432;SDS011;41331;45.412;10.992;2023-05-07T14:35:39;7.57;;;4.32;;
23432;SDS011;41331;45.412;10.992;2023-05-07T14:38:07;7.28;;;5.05;;
23432;SDS011;41331;45.412;10.992;2023-05-07T14:40:34;10.10;;;5.07;;
23432;SDS011;41331;45.412;10.992;2023-05-07T14:43:01;7.00;;;4.57;;
23432;SDS011;41331;45.412;10.992;2023-05-07T14:45:29;8.80;;;4.70;;
23432;SDS011;41331;45.412;10.992;2023-05-07T14:47:56;8.23;;;4.65;;
23432;SDS011;41331;45.412;10.992;2023-05-07T14:50:24;7.90;;;5.00;;